sensor_id;sensor_type;location;lat;lon;timestamp;temperature;humidity
67141;DHT22;54058;52.010;5.546;2022-09-29T00:02:21;8.90;88.30
67141;DHT22;54058;52.010;5.546;2022-09-29T00:04:46;8.90;88.30
67141;DHT22;54058;52.010;5.546;2022-09-29T00:07:12;8.90;88.20
67141;DHT22;54058;52.010;5.546;2022-09-29T00:09:37;8.90;88.70
67141;DHT22;54058;52.010;5.546;2022-09-29T00:12:03;8.90;88.10
67141;DHT22;54058;52.010;5.546;2022-09-29T00:14:29;8.90;87.90
67141;DHT22;54058;52.010;5.546;2022-09-29T00:16:54;8.80;87.90
67141;DHT22;54058;52.010;5.546;2022-09-29T00:19:20;8.80;88.00
67141;DHT22;54058;52.010;5.546;2022-09-29T00:21:46;8.70;87.90
67141;DHT22;54058;52.010;5.546;2022-09-29T00:24:11;8.60;88.00
67141;DHT22;54058;52.010;5.546;2022-09-29T00:26:37;8.60;88.20
67141;DHT22;54058;52.010;5.546;2022-09-29T00:29:03;8.60;88.20
67141;DHT22;54058;52.010;5.546;2022-09-29T00:31:31;8.50;88.30
67141;DHT22;54058;52.010;5.546;2022-09-29T00:33:57;8.60;88.40
67141;DHT22;54058;52.010;5.546;2022-09-29T00:36:23;8.60;88.50
67141;DHT22;54058;52.010;5.546;2022-09-29T00:38:50;8.60;88.40
67141;DHT22;54058;52.010;5.546;2022-09-29T00:41:22;8.60;88.40
67141;DHT22;54058;52.010;5.546;2022-09-29T00:44:03;8.60;88.40
67141;DHT22;54058;52.010;5.546;2022-09-29T00:49:27;8.50;88.20
67141;DHT22;54058;52.010;5.546;2022-09-29T00:52:12;8.20;88.20
67141;DHT22;54058;52.010;5.546;2022-09-29T00:54:48;8.20;88.60
67141;DHT22;54058;52.010;5.546;2022-09-29T00:57:18;8.30;88.80
67141;DHT22;54058;52.010;5.546;2022-09-29T00:59:51;8.30;88.80
67141;DHT22;54058;52.010;5.546;2022-09-29T01:02:18;8.30;88.50
67141;DHT22;54058;52.010;5.546;2022-09-29T01:04:46;8.20;88.40
67141;DHT22;54058;52.010;5.546;2022-09-29T01:07:13;8.20;88.60
67141;DHT22;54058;52.010;5.546;2022-09-29T01:09:40;8.20;88.60
67141;DHT22;54058;52.010;5.546;2022-09-29T01:12:07;8.20;88.60
67141;DHT22;54058;52.010;5.546;2022-09-29T01:14:34;8.20;88.60
67141;DHT22;54058;52.010;5.546;2022-09-29T01:17:01;8.30;88.70
67141;DHT22;54058;52.010;5.546;2022-09-29T01:33:54;8.30;88.40
67141;DHT22;54058;52.010;5.546;2022-09-29T01:39:29;8.20;88.20
67141;DHT22;54058;52.010;5.546;2022-09-29T01:42:04;8.20;88.20
67141;DHT22;54058;52.010;5.546;2022-09-29T01:44:38;8.10;88.20
67141;DHT22;54058;52.010;5.546;2022-09-29T01:47:26;8.00;88.30
67141;DHT22;54058;52.010;5.546;2022-09-29T01:49:59;8.00;88.30
67141;DHT22;54058;52.010;5.546;2022-09-29T01:52:30;7.90;88.60
67141;DHT22;54058;52.010;5.546;2022-09-29T01:55:06;7.90;88.80
67141;DHT22;54058;52.010;5.546;2022-09-29T01:57:42;8.00;88.80
67141;DHT22;54058;52.010;5.546;2022-09-29T02:00:11;8.00;88.80
67141;DHT22;54058;52.010;5.546;2022-09-29T02:02:54;8.00;88.60
67141;DHT22;54058;52.010;5.546;2022-09-29T02:05:35;8.00;88.70
67141;DHT22;54058;52.010;5.546;2022-09-29T02:08:08;8.00;88.60
67141;DHT22;54058;52.010;5.546;2022-09-29T02:10:48;8.00;88.60
67141;DHT22;54058;52.010;5.546;2022-09-29T02:13:15;8.10;88.60
67141;DHT22;54058;52.010;5.546;2022-09-29T02:15:45;8.00;88.40
67141;DHT22;54058;52.010;5.546;2022-09-29T02:18:17;7.90;88.30
67141;DHT22;54058;52.010;5.546;2022-09-29T02:20:45;7.70;88.50
67141;DHT22;54058;52.010;5.546;2022-09-29T02:23:11;7.60;88.80
67141;DHT22;54058;52.010;5.546;2022-09-29T02:25:38;7.70;89.40
67141;DHT22;54058;52.010;5.546;2022-09-29T02:28:05;7.80;89.20
67141;DHT22;54058;52.010;5.546;2022-09-29T02:30:31;7.80;88.90
67141;DHT22;54058;52.010;5.546;2022-09-29T02:32:56;7.70;88.80
67141;DHT22;54058;52.010;5.546;2022-09-29T02:35:23;7.70;88.80
67141;DHT22;54058;52.010;5.546;2022-09-29T02:38:11;7.80;88.80
67141;DHT22;54058;52.010;5.546;2022-09-29T02:40:58;7.80;88.80
67141;DHT22;54058;52.010;5.546;2022-09-29T02:43:44;7.80;89.30
67141;DHT22;54058;52.010;5.546;2022-09-29T02:48:54;7.90;88.60
67141;DHT22;54058;52.010;5.546;2022-09-29T02:51:39;7.90;88.60
67141;DHT22;54058;52.010;5.546;2022-09-29T02:56:45;7.80;88.40
67141;DHT22;54058;52.010;5.546;2022-09-29T02:59:22;7.80;88.50
67141;DHT22;54058;52.010;5.546;2022-09-29T03:01:51;7.80;88.50
67141;DHT22;54058;52.010;5.546;2022-09-29T03:04:18;7.80;88.50
67141;DHT22;54058;52.010;5.546;2022-09-29T03:06:44;7.80;88.50
67141;DHT22;54058;52.010;5.546;2022-09-29T03:09:09;7.70;88.40
67141;DHT22;54058;52.010;5.546;2022-09-29T03:11:35;7.70;88.50
67141;DHT22;54058;52.010;5.546;2022-09-29T03:14:01;7.70;88.60
67141;DHT22;54058;52.010;5.546;2022-09-29T03:16:27;7.70;88.40
67141;DHT22;54058;52.010;5.546;2022-09-29T03:18:53;7.70;88.60
67141;DHT22;54058;52.010;5.546;2022-09-29T03:21:19;7.80;88.70
67141;DHT22;54058;52.010;5.546;2022-09-29T03:23:45;7.80;88.40
67141;DHT22;54058;52.010;5.546;2022-09-29T03:26:10;7.80;88.20
67141;DHT22;54058;52.010;5.546;2022-09-29T03:28:36;7.70;88.00
67141;DHT22;54058;52.010;5.546;2022-09-29T03:31:11;7.70;88.10
67141;DHT22;54058;52.010;5.546;2022-09-29T03:33:37;7.70;88.20
67141;DHT22;54058;52.010;5.546;2022-09-29T03:36:04;7.70;88.30
67141;DHT22;54058;52.010;5.546;2022-09-29T03:38:31;7.70;88.40
67141;DHT22;54058;52.010;5.546;2022-09-29T03:40:57;7.70;88.30
67141;DHT22;54058;52.010;5.546;2022-09-29T03:43:22;7.70;88.20
67141;DHT22;54058;52.010;5.546;2022-09-29T03:45:49;7.60;88.00
67141;DHT22;54058;52.010;5.546;2022-09-29T03:48:16;7.40;87.80
67141;DHT22;54058;52.010;5.546;2022-09-29T03:50:41;7.20;88.40
67141;DHT22;54058;52.010;5.546;2022-09-29T03:53:08;7.30;89.50
67141;DHT22;54058;52.010;5.546;2022-09-29T03:55:34;7.50;89.00
67141;DHT22;54058;52.010;5.546;2022-09-29T03:57:59;7.50;88.80
67141;DHT22;54058;52.010;5.546;2022-09-29T04:00:25;7.50;88.60
67141;DHT22;54058;52.010;5.546;2022-09-29T04:02:53;7.50;88.40
67141;DHT22;54058;52.010;5.546;2022-09-29T04:05:19;7.50;88.40
67141;DHT22;54058;52.010;5.546;2022-09-29T04:07:45;7.50;88.50
67141;DHT22;54058;52.010;5.546;2022-09-29T04:10:10;7.50;88.50
67141;DHT22;54058;52.010;5.546;2022-09-29T04:12:36;7.50;88.50
67141;DHT22;54058;52.010;5.546;2022-09-29T04:15:02;7.50;88.50
67141;DHT22;54058;52.010;5.546;2022-09-29T04:17:28;7.50;88.50
67141;DHT22;54058;52.010;5.546;2022-09-29T04:19:53;7.50;88.40
67141;DHT22;54058;52.010;5.546;2022-09-29T04:22:19;7.50;88.40
67141;DHT22;54058;52.010;5.546;2022-09-29T04:24:45;7.50;88.50
67141;DHT22;54058;52.010;5.546;2022-09-29T04:27:13;7.50;88.50
67141;DHT22;54058;52.010;5.546;2022-09-29T04:29:38;7.50;88.30
67141;DHT22;54058;52.010;5.546;2022-09-29T04:32:04;7.50;88.30
67141;DHT22;54058;52.010;5.546;2022-09-29T04:34:31;7.50;88.20
67141;DHT22;54058;52.010;5.546;2022-09-29T04:36:57;7.50;88.10
67141;DHT22;54058;52.010;5.546;2022-09-29T04:39:22;7.50;88.20
67141;DHT22;54058;52.010;5.546;2022-09-29T04:41:48;7.50;88.10
67141;DHT22;54058;52.010;5.546;2022-09-29T04:44:13;7.50;88.20
67141;DHT22;54058;52.010;5.546;2022-09-29T04:46:39;7.50;88.10
67141;DHT22;54058;52.010;5.546;2022-09-29T04:49:05;7.50;88.00
67141;DHT22;54058;52.010;5.546;2022-09-29T04:51:30;7.50;88.10
67141;DHT22;54058;52.010;5.546;2022-09-29T04:53:59;7.40;87.80
67141;DHT22;54058;52.010;5.546;2022-09-29T04:56:25;7.40;87.90
67141;DHT22;54058;52.010;5.546;2022-09-29T04:58:56;7.30;88.00
67141;DHT22;54058;52.010;5.546;2022-09-29T05:01:22;7.30;88.00
67141;DHT22;54058;52.010;5.546;2022-09-29T05:03:47;7.30;88.00
67141;DHT22;54058;52.010;5.546;2022-09-29T05:06:13;7.30;88.10
67141;DHT22;54058;52.010;5.546;2022-09-29T05:08:38;7.40;88.10
67141;DHT22;54058;52.010;5.546;2022-09-29T05:11:05;7.40;88.30
67141;DHT22;54058;52.010;5.546;2022-09-29T05:13:32;7.40;88.10
67141;DHT22;54058;52.010;5.546;2022-09-29T05:15:57;7.50;88.10
67141;DHT22;54058;52.010;5.546;2022-09-29T05:18:24;7.50;88.00
67141;DHT22;54058;52.010;5.546;2022-09-29T05:20:50;7.50;88.00
67141;DHT22;54058;52.010;5.546;2022-09-29T05:23:16;7.50;88.00
67141;DHT22;54058;52.010;5.546;2022-09-29T05:25:41;7.50;87.90
67141;DHT22;54058;52.010;5.546;2022-09-29T05:28:09;7.50;87.80
67141;DHT22;54058;52.010;5.546;2022-09-29T05:30:35;7.50;87.90
67141;DHT22;54058;52.010;5.546;2022-09-29T05:33:01;7.50;87.90
67141;DHT22;54058;52.010;5.546;2022-09-29T05:35:27;7.50;88.00
67141;DHT22;54058;52.010;5.546;2022-09-29T05:37:53;7.40;87.90
67141;DHT22;54058;52.010;5.546;2022-09-29T05:40:18;7.40;88.00
67141;DHT22;54058;52.010;5.546;2022-09-29T05:42:44;7.30;88.10
67141;DHT22;54058;52.010;5.546;2022-09-29T05:45:10;7.40;88.30
67141;DHT22;54058;52.010;5.546;2022-09-29T05:47:40;7.30;88.00
67141;DHT22;54058;52.010;5.546;2022-09-29T05:50:06;7.30;87.90
67141;DHT22;54058;52.010;5.546;2022-09-29T05:52:32;7.30;88.10
67141;DHT22;54058;52.010;5.546;2022-09-29T05:54:57;7.20;88.10
67141;DHT22;54058;52.010;5.546;2022-09-29T05:57:24;7.20;88.20
67141;DHT22;54058;52.010;5.546;2022-09-29T05:59:49;7.20;88.40
67141;DHT22;54058;52.010;5.546;2022-09-29T06:02:15;7.30;88.70
67141;DHT22;54058;52.010;5.546;2022-09-29T06:04:41;7.30;88.70
67141;DHT22;54058;52.010;5.546;2022-09-29T06:07:07;7.30;88.60
67141;DHT22;54058;52.010;5.546;2022-09-29T06:09:33;7.30;88.60
67141;DHT22;54058;52.010;5.546;2022-09-29T06:12:00;7.30;88.80
67141;DHT22;54058;52.010;5.546;2022-09-29T06:14:26;7.40;89.00
67141;DHT22;54058;52.010;5.546;2022-09-29T06:16:52;7.40;88.90
67141;DHT22;54058;52.010;5.546;2022-09-29T06:19:18;7.40;88.80
67141;DHT22;54058;52.010;5.546;2022-09-29T06:21:43;7.40;88.80
67141;DHT22;54058;52.010;5.546;2022-09-29T06:24:09;7.50;88.90
67141;DHT22;54058;52.010;5.546;2022-09-29T06:26:35;7.50;88.80
67141;DHT22;54058;52.010;5.546;2022-09-29T06:29:01;7.60;88.80
67141;DHT22;54058;52.010;5.546;2022-09-29T06:31:28;7.60;88.70
67141;DHT22;54058;52.010;5.546;2022-09-29T06:33:59;7.60;88.80
67141;DHT22;54058;52.010;5.546;2022-09-29T06:36:33;7.60;88.70
67141;DHT22;54058;52.010;5.546;2022-09-29T06:39:17;7.60;88.60
67141;DHT22;54058;52.010;5.546;2022-09-29T06:41:44;7.60;88.60
67141;DHT22;54058;52.010;5.546;2022-09-29T06:44:16;7.60;88.60
67141;DHT22;54058;52.010;5.546;2022-09-29T06:46:42;7.70;88.80
67141;DHT22;54058;52.010;5.546;2022-09-29T06:49:07;7.80;88.90
67141;DHT22;54058;52.010;5.546;2022-09-29T06:51:35;7.80;88.90
67141;DHT22;54058;52.010;5.546;2022-09-29T06:54:01;7.80;88.90
67141;DHT22;54058;52.010;5.546;2022-09-29T06:56:27;7.90;89.00
67141;DHT22;54058;52.010;5.546;2022-09-29T06:58:54;8.00;88.90
67141;DHT22;54058;52.010;5.546;2022-09-29T07:01:20;8.00;88.90
67141;DHT22;54058;52.010;5.546;2022-09-29T07:03:46;8.10;88.80
67141;DHT22;54058;52.010;5.546;2022-09-29T07:06:11;8.00;88.80
67141;DHT22;54058;52.010;5.546;2022-09-29T07:08:37;8.10;89.00
67141;DHT22;54058;52.010;5.546;2022-09-29T07:11:08;8.20;89.20
67141;DHT22;54058;52.010;5.546;2022-09-29T07:13:34;8.30;89.40
67141;DHT22;54058;52.010;5.546;2022-09-29T07:16:05;8.40;89.20
67141;DHT22;54058;52.010;5.546;2022-09-29T07:18:38;8.50;89.30
67141;DHT22;54058;52.010;5.546;2022-09-29T07:21:09;8.60;89.30
67141;DHT22;54058;52.010;5.546;2022-09-29T07:23:36;8.70;89.40
67141;DHT22;54058;52.010;5.546;2022-09-29T07:26:03;8.80;89.30
67141;DHT22;54058;52.010;5.546;2022-09-29T07:28:29;8.90;89.20
67141;DHT22;54058;52.010;5.546;2022-09-29T07:31:04;9.10;89.30
67141;DHT22;54058;52.010;5.546;2022-09-29T07:33:30;9.10;89.00
67141;DHT22;54058;52.010;5.546;2022-09-29T07:35:55;9.20;89.00
67141;DHT22;54058;52.010;5.546;2022-09-29T07:38:23;9.20;88.90
67141;DHT22;54058;52.010;5.546;2022-09-29T07:40:49;9.20;89.00
67141;DHT22;54058;52.010;5.546;2022-09-29T07:43:14;9.30;89.20
67141;DHT22;54058;52.010;5.546;2022-09-29T07:45:48;9.40;89.30
67141;DHT22;54058;52.010;5.546;2022-09-29T07:48:14;9.40;89.20
67141;DHT22;54058;52.010;5.546;2022-09-29T07:50:40;9.30;89.60
67141;DHT22;54058;52.010;5.546;2022-09-29T07:53:06;9.40;89.90
67141;DHT22;54058;52.010;5.546;2022-09-29T07:55:31;9.50;90.00
67141;DHT22;54058;52.010;5.546;2022-09-29T07:57:57;9.60;90.00
67141;DHT22;54058;52.010;5.546;2022-09-29T08:00:22;9.70;90.00
67141;DHT22;54058;52.010;5.546;2022-09-29T08:02:48;9.80;89.80
67141;DHT22;54058;52.010;5.546;2022-09-29T08:05:14;9.80;90.20
67141;DHT22;54058;52.010;5.546;2022-09-29T08:07:39;9.90;90.00
67141;DHT22;54058;52.010;5.546;2022-09-29T08:10:06;9.90;89.80
67141;DHT22;54058;52.010;5.546;2022-09-29T08:12:31;9.80;90.00
67141;DHT22;54058;52.010;5.546;2022-09-29T08:14:57;9.70;90.30
67141;DHT22;54058;52.010;5.546;2022-09-29T08:17:22;9.70;90.40
67141;DHT22;54058;52.010;5.546;2022-09-29T08:19:48;9.80;90.60
67141;DHT22;54058;52.010;5.546;2022-09-29T08:22:14;9.90;90.60
67141;DHT22;54058;52.010;5.546;2022-09-29T08:24:39;9.90;90.60
67141;DHT22;54058;52.010;5.546;2022-09-29T08:27:05;10.00;90.70
67141;DHT22;54058;52.010;5.546;2022-09-29T08:29:32;10.10;90.70
67141;DHT22;54058;52.010;5.546;2022-09-29T08:31:57;10.20;90.70
67141;DHT22;54058;52.010;5.546;2022-09-29T08:34:23;10.20;90.60
67141;DHT22;54058;52.010;5.546;2022-09-29T08:36:48;10.30;90.70
67141;DHT22;54058;52.010;5.546;2022-09-29T08:39:15;10.40;90.70
67141;DHT22;54058;52.010;5.546;2022-09-29T08:41:54;10.30;90.70
67141;DHT22;54058;52.010;5.546;2022-09-29T08:44:47;10.30;91.00
67141;DHT22;54058;52.010;5.546;2022-09-29T08:47:37;10.30;90.80
67141;DHT22;54058;52.010;5.546;2022-09-29T08:52:57;10.60;90.30
67141;DHT22;54058;52.010;5.546;2022-09-29T08:55:32;10.40;90.90
67141;DHT22;54058;52.010;5.546;2022-09-29T08:58:00;10.50;91.10
67141;DHT22;54058;52.010;5.546;2022-09-29T09:00:34;10.50;91.20
67141;DHT22;54058;52.010;5.546;2022-09-29T09:12:28;11.10;90.80
67141;DHT22;54058;52.010;5.546;2022-09-29T09:18:07;11.20;90.50
67141;DHT22;54058;52.010;5.546;2022-09-29T09:20:43;11.40;90.30
67141;DHT22;54058;52.010;5.546;2022-09-29T09:26:08;11.30;90.00
67141;DHT22;54058;52.010;5.546;2022-09-29T09:28:47;11.30;90.10
67141;DHT22;54058;52.010;5.546;2022-09-29T09:31:39;11.30;90.20
67141;DHT22;54058;52.010;5.546;2022-09-29T09:34:20;11.40;90.20
67141;DHT22;54058;52.010;5.546;2022-09-29T09:36:56;11.50;90.10
67141;DHT22;54058;52.010;5.546;2022-09-29T09:39:32;11.50;90.00
67141;DHT22;54058;52.010;5.546;2022-09-29T09:42:02;11.60;89.80
67141;DHT22;54058;52.010;5.546;2022-09-29T09:44:41;11.60;89.70
67141;DHT22;54058;52.010;5.546;2022-09-29T09:47:33;11.80;89.50
67141;DHT22;54058;52.010;5.546;2022-09-29T09:50:12;11.90;89.30
67141;DHT22;54058;52.010;5.546;2022-09-29T09:52:51;11.90;89.20
67141;DHT22;54058;52.010;5.546;2022-09-29T09:55:22;11.90;89.10
67141;DHT22;54058;52.010;5.546;2022-09-29T10:00:48;12.00;89.60
67141;DHT22;54058;52.010;5.546;2022-09-29T10:03:15;12.10;89.40
67141;DHT22;54058;52.010;5.546;2022-09-29T10:05:43;12.10;89.10
67141;DHT22;54058;52.010;5.546;2022-09-29T10:08:20;12.10;89.10
67141;DHT22;54058;52.010;5.546;2022-09-29T10:10:47;12.20;89.00
67141;DHT22;54058;52.010;5.546;2022-09-29T10:13:15;12.20;89.00
67141;DHT22;54058;52.010;5.546;2022-09-29T10:20:43;12.10;89.70
67141;DHT22;54058;52.010;5.546;2022-09-29T10:28:39;12.30;89.30
67141;DHT22;54058;52.010;5.546;2022-09-29T10:31:28;12.50;89.50
67141;DHT22;54058;52.010;5.546;2022-09-29T10:34:20;12.70;89.20
67141;DHT22;54058;52.010;5.546;2022-09-29T10:36:51;12.80;88.80
67141;DHT22;54058;52.010;5.546;2022-09-29T10:39:43;13.00;88.80
67141;DHT22;54058;52.010;5.546;2022-09-29T10:42:31;13.20;88.50
67141;DHT22;54058;52.010;5.546;2022-09-29T10:45:13;13.40;88.10
67141;DHT22;54058;52.010;5.546;2022-09-29T10:47:40;13.50;88.00
67141;DHT22;54058;52.010;5.546;2022-09-29T10:50:28;13.60;88.00
67141;DHT22;54058;52.010;5.546;2022-09-29T10:52:59;13.80;87.70
67141;DHT22;54058;52.010;5.546;2022-09-29T10:55:34;13.90;87.50
67141;DHT22;54058;52.010;5.546;2022-09-29T10:58:05;14.10;87.40
67141;DHT22;54058;52.010;5.546;2022-09-29T11:00:44;14.20;87.20
67141;DHT22;54058;52.010;5.546;2022-09-29T11:03:20;14.40;87.00
67141;DHT22;54058;52.010;5.546;2022-09-29T11:06:03;14.60;86.70
67141;DHT22;54058;52.010;5.546;2022-09-29T11:08:33;14.50;85.50
67141;DHT22;54058;52.010;5.546;2022-09-29T11:11:31;14.40;86.20
67141;DHT22;54058;52.010;5.546;2022-09-29T11:13:58;14.30;86.40
67141;DHT22;54058;52.010;5.546;2022-09-29T11:19:15;14.50;86.40
67141;DHT22;54058;52.010;5.546;2022-09-29T11:27:24;15.10;85.70
67141;DHT22;54058;52.010;5.546;2022-09-29T11:30:06;15.30;85.10
67141;DHT22;54058;52.010;5.546;2022-09-29T11:50:09;14.70;85.10
67141;DHT22;54058;52.010;5.546;2022-09-29T12:01:14;14.90;83.00
67141;DHT22;54058;52.010;5.546;2022-09-29T12:06:51;15.00;82.30
67141;DHT22;54058;52.010;5.546;2022-09-29T12:17:43;14.80;82.80
67141;DHT22;54058;52.010;5.546;2022-09-29T12:20:30;14.70;83.70
67141;DHT22;54058;52.010;5.546;2022-09-29T12:23:01;14.90;83.30
67141;DHT22;54058;52.010;5.546;2022-09-29T12:25:32;15.10;83.40
67141;DHT22;54058;52.010;5.546;2022-09-29T12:28:06;15.30;82.70
67141;DHT22;54058;52.010;5.546;2022-09-29T12:30:41;15.40;81.90
67141;DHT22;54058;52.010;5.546;2022-09-29T12:33:39;15.40;77.90
67141;DHT22;54058;52.010;5.546;2022-09-29T12:36:17;15.40;80.50
67141;DHT22;54058;52.010;5.546;2022-09-29T12:39:12;15.40;81.90
67141;DHT22;54058;52.010;5.546;2022-09-29T12:41:45;15.40;82.20
67141;DHT22;54058;52.010;5.546;2022-09-29T12:44:17;15.50;82.30
67141;DHT22;54058;52.010;5.546;2022-09-29T12:49:59;15.70;81.60
67141;DHT22;54058;52.010;5.546;2022-09-29T12:52:43;15.80;81.30
67141;DHT22;54058;52.010;5.546;2022-09-29T12:55:31;15.80;81.00
67141;DHT22;54058;52.010;5.546;2022-09-29T12:58:06;15.80;78.40
67141;DHT22;54058;52.010;5.546;2022-09-29T13:00:35;15.70;80.10
67141;DHT22;54058;52.010;5.546;2022-09-29T13:12:02;15.90;79.40
67141;DHT22;54058;52.010;5.546;2022-09-29T13:17:29;15.80;80.20
67141;DHT22;54058;52.010;5.546;2022-09-29T13:30:52;15.50;79.60
67141;DHT22;54058;52.010;5.546;2022-09-29T13:33:22;15.40;80.60
67141;DHT22;54058;52.010;5.546;2022-09-29T13:35:49;15.40;80.80
67141;DHT22;54058;52.010;5.546;2022-09-29T13:38:31;15.40;80.80
67141;DHT22;54058;52.010;5.546;2022-09-29T13:49:11;15.10;79.80
67141;DHT22;54058;52.010;5.546;2022-09-29T13:51:56;15.10;79.80
67141;DHT22;54058;52.010;5.546;2022-09-29T13:54:38;15.00;79.40
67141;DHT22;54058;52.010;5.546;2022-09-29T14:02:40;14.80;79.90
67141;DHT22;54058;52.010;5.546;2022-09-29T14:18:48;14.60;78.50
67141;DHT22;54058;52.010;5.546;2022-09-29T14:21:46;14.50;79.40
67141;DHT22;54058;52.010;5.546;2022-09-29T14:24:47;14.60;78.90
67141;DHT22;54058;52.010;5.546;2022-09-29T14:27:36;14.60;78.50
67141;DHT22;54058;52.010;5.546;2022-09-29T14:32:55;14.60;79.50
67141;DHT22;54058;52.010;5.546;2022-09-29T14:35:36;14.60;79.50
67141;DHT22;54058;52.010;5.546;2022-09-29T14:43:53;14.60;79.50
67141;DHT22;54058;52.010;5.546;2022-09-29T14:55:45;14.50;80.00
67141;DHT22;54058;52.010;5.546;2022-09-29T15:03:20;14.30;80.60
67141;DHT22;54058;52.010;5.546;2022-09-29T15:06:23;14.30;80.70
67141;DHT22;54058;52.010;5.546;2022-09-29T15:11:32;14.20;80.90
67141;DHT22;54058;52.010;5.546;2022-09-29T15:14:01;14.20;80.90
67141;DHT22;54058;52.010;5.546;2022-09-29T15:22:22;14.10;81.20
67141;DHT22;54058;52.010;5.546;2022-09-29T15:27:26;14.00;81.50
67141;DHT22;54058;52.010;5.546;2022-09-29T15:29:55;14.00;81.70
67141;DHT22;54058;52.010;5.546;2022-09-29T15:32:29;14.00;81.80
67141;DHT22;54058;52.010;5.546;2022-09-29T15:35:20;14.00;81.90
67141;DHT22;54058;52.010;5.546;2022-09-29T15:40:18;14.00;82.00
67141;DHT22;54058;52.010;5.546;2022-09-29T15:42:44;14.00;82.00
67141;DHT22;54058;52.010;5.546;2022-09-29T15:45:15;14.00;81.90
67141;DHT22;54058;52.010;5.546;2022-09-29T15:47:41;13.90;81.60
67141;DHT22;54058;52.010;5.546;2022-09-29T15:50:33;14.00;81.90
67141;DHT22;54058;52.010;5.546;2022-09-29T15:53:05;13.90;81.70
67141;DHT22;54058;52.010;5.546;2022-09-29T15:55:31;13.90;81.80
67141;DHT22;54058;52.010;5.546;2022-09-29T15:57:57;13.90;81.80
67141;DHT22;54058;52.010;5.546;2022-09-29T16:00:41;13.80;81.70
67141;DHT22;54058;52.010;5.546;2022-09-29T16:03:22;13.80;81.70
67141;DHT22;54058;52.010;5.546;2022-09-29T16:05:59;13.80;81.70
67141;DHT22;54058;52.010;5.546;2022-09-29T16:08:27;13.80;81.80
67141;DHT22;54058;52.010;5.546;2022-09-29T16:10:57;13.70;81.80
67141;DHT22;54058;52.010;5.546;2022-09-29T16:13:32;13.70;81.90
67141;DHT22;54058;52.010;5.546;2022-09-29T16:16:26;13.60;81.90
67141;DHT22;54058;52.010;5.546;2022-09-29T16:18:53;13.60;81.90
67141;DHT22;54058;52.010;5.546;2022-09-29T16:21:21;13.60;82.00
67141;DHT22;54058;52.010;5.546;2022-09-29T16:24:06;13.50;81.90
67141;DHT22;54058;52.010;5.546;2022-09-29T16:26:47;13.50;81.90
67141;DHT22;54058;52.010;5.546;2022-09-29T16:31:46;13.40;82.00
67141;DHT22;54058;52.010;5.546;2022-09-29T16:34:25;13.40;82.10
67141;DHT22;54058;52.010;5.546;2022-09-29T16:37:02;13.30;82.10
67141;DHT22;54058;52.010;5.546;2022-09-29T16:39:44;13.20;82.20
67141;DHT22;54058;52.010;5.546;2022-09-29T16:44:46;13.10;82.30
67141;DHT22;54058;52.010;5.546;2022-09-29T16:47:20;13.10;82.40
67141;DHT22;54058;52.010;5.546;2022-09-29T16:49:49;13.00;82.40
67141;DHT22;54058;52.010;5.546;2022-09-29T16:52:28;12.90;82.50
67141;DHT22;54058;52.010;5.546;2022-09-29T16:57:53;12.80;82.70
67141;DHT22;54058;52.010;5.546;2022-09-29T17:00:19;12.70;82.80
67141;DHT22;54058;52.010;5.546;2022-09-29T17:02:50;12.60;82.90
67141;DHT22;54058;52.010;5.546;2022-09-29T17:05:16;12.60;83.00
67141;DHT22;54058;52.010;5.546;2022-09-29T17:07:42;12.50;83.10
67141;DHT22;54058;52.010;5.546;2022-09-29T17:10:16;12.50;83.10
67141;DHT22;54058;52.010;5.546;2022-09-29T17:12:43;12.40;83.10
67141;DHT22;54058;52.010;5.546;2022-09-29T17:15:16;12.30;83.20
67141;DHT22;54058;52.010;5.546;2022-09-29T17:17:44;12.20;83.20
67141;DHT22;54058;52.010;5.546;2022-09-29T17:20:28;12.10;83.30
67141;DHT22;54058;52.010;5.546;2022-09-29T17:22:55;12.10;83.50
67141;DHT22;54058;52.010;5.546;2022-09-29T17:25:22;12.00;83.50
67141;DHT22;54058;52.010;5.546;2022-09-29T17:27:48;12.00;83.50
67141;DHT22;54058;52.010;5.546;2022-09-29T17:30:32;11.90;83.50
67141;DHT22;54058;52.010;5.546;2022-09-29T17:32:58;11.90;83.50
67141;DHT22;54058;52.010;5.546;2022-09-29T17:35:26;11.90;83.50
67141;DHT22;54058;52.010;5.546;2022-09-29T17:37:53;11.80;83.50
67141;DHT22;54058;52.010;5.546;2022-09-29T17:40:32;11.80;84.10
67141;DHT22;54058;52.010;5.546;2022-09-29T17:42:58;11.70;83.50
67141;DHT22;54058;52.010;5.546;2022-09-29T17:45:26;11.70;83.60
67141;DHT22;54058;52.010;5.546;2022-09-29T17:47:52;11.60;83.60
67141;DHT22;54058;52.010;5.546;2022-09-29T17:50:36;11.50;83.90
67141;DHT22;54058;52.010;5.546;2022-09-29T17:53:05;11.50;83.60
67141;DHT22;54058;52.010;5.546;2022-09-29T17:55:32;11.40;83.70
67141;DHT22;54058;52.010;5.546;2022-09-29T17:57:59;11.40;83.70
67141;DHT22;54058;52.010;5.546;2022-09-29T18:00:27;11.30;83.70
67141;DHT22;54058;52.010;5.546;2022-09-29T18:02:53;11.30;83.80
67141;DHT22;54058;52.010;5.546;2022-09-29T18:05:25;11.20;83.90
67141;DHT22;54058;52.010;5.546;2022-09-29T18:07:52;11.20;83.90
67141;DHT22;54058;52.010;5.546;2022-09-29T18:12:43;11.10;84.40
67141;DHT22;54058;52.010;5.546;2022-09-29T18:15:09;11.10;83.90
67141;DHT22;54058;52.010;5.546;2022-09-29T18:17:35;11.10;83.90
67141;DHT22;54058;52.010;5.546;2022-09-29T18:20:12;11.00;83.90
67141;DHT22;54058;52.010;5.546;2022-09-29T18:22:41;11.00;83.80
67141;DHT22;54058;52.010;5.546;2022-09-29T18:25:09;10.90;83.90
67141;DHT22;54058;52.010;5.546;2022-09-29T18:27:34;10.80;84.40
67141;DHT22;54058;52.010;5.546;2022-09-29T18:30:14;10.80;84.00
67141;DHT22;54058;52.010;5.546;2022-09-29T18:32:43;10.80;84.00
67141;DHT22;54058;52.010;5.546;2022-09-29T18:35:14;10.80;84.10
67141;DHT22;54058;52.010;5.546;2022-09-29T18:37:40;10.70;84.00
67141;DHT22;54058;52.010;5.546;2022-09-29T18:40:06;10.70;84.20
67141;DHT22;54058;52.010;5.546;2022-09-29T18:42:31;10.70;84.20
67141;DHT22;54058;52.010;5.546;2022-09-29T18:44:57;10.70;84.20
67141;DHT22;54058;52.010;5.546;2022-09-29T18:47:23;10.70;84.30
67141;DHT22;54058;52.010;5.546;2022-09-29T18:49:49;10.60;84.30
67141;DHT22;54058;52.010;5.546;2022-09-29T18:52:14;10.60;84.20
67141;DHT22;54058;52.010;5.546;2022-09-29T18:54:40;10.50;84.20
67141;DHT22;54058;52.010;5.546;2022-09-29T18:57:11;10.50;84.30
67141;DHT22;54058;52.010;5.546;2022-09-29T18:59:36;10.50;84.30
67141;DHT22;54058;52.010;5.546;2022-09-29T19:02:02;10.50;84.30
67141;DHT22;54058;52.010;5.546;2022-09-29T19:04:27;10.50;84.50
67141;DHT22;54058;52.010;5.546;2022-09-29T19:06:54;10.40;84.40
67141;DHT22;54058;52.010;5.546;2022-09-29T19:09:20;10.40;84.40
67141;DHT22;54058;52.010;5.546;2022-09-29T19:11:45;10.40;84.50
67141;DHT22;54058;52.010;5.546;2022-09-29T19:14:12;10.30;84.50
67141;DHT22;54058;52.010;5.546;2022-09-29T19:16:38;10.20;84.50
67141;DHT22;54058;52.010;5.546;2022-09-29T19:19:03;10.20;84.60
67141;DHT22;54058;52.010;5.546;2022-09-29T19:21:31;10.20;84.70
67141;DHT22;54058;52.010;5.546;2022-09-29T19:23:57;10.10;84.80